sensor_id;sensor_type;location;lat;lon;timestamp;pressure;altitude;pressure_sealevel;temperature;humidity
37202;BME280;37799;52.390;6.136;2023-03-26T00:00:26;100669.34;;;7.79;100.00
37202;BME280;37799;52.390;6.136;2023-03-26T00:02:52;100676.50;;;7.63;100.00
37202;BME280;37799;52.390;6.136;2023-03-26T00:05:17;100675.56;;;7.69;100.00
37202;BME280;37799;52.390;6.136;2023-03-26T00:07:42;100679.72;;;7.76;100.00
37202;BME280;37799;52.390;6.136;2023-03-26T00:10:08;100681.91;;;7.99;100.00
37202;BME280;37799;52.390;6.136;2023-03-26T00:12:34;100677.94;;;7.80;100.00
37202;BME280;37799;52.390;6.136;2023-03-26T00:14:59;100675.53;;;7.71;100.00
37202;BME280;37799;52.390;6.136;2023-03-26T00:17:24;100677.00;;;7.85;100.00
37202;BME280;37799;52.390;6.136;2023-03-26T00:19:50;100667.06;;;7.62;100.00
37202;BME280;37799;52.390;6.136;2023-03-26T00:22:17;100674.00;;;7.60;100.00
37202;BME280;37799;52.390;6.136;2023-03-26T00:24:43;100668.47;;;7.82;100.00
37202;BME280;37799;52.390;6.136;2023-03-26T00:27:10;100675.81;;;7.55;100.00
37202;BME280;37799;52.390;6.136;2023-03-26T00:29:35;100673.25;;;7.52;100.00
37202;BME280;37799;52.390;6.136;2023-03-26T00:32:01;100661.38;;;7.42;100.00
37202;BME280;37799;52.390;6.136;2023-03-26T00:34:26;100669.75;;;7.58;100.00
37202;BME280;37799;52.390;6.136;2023-03-26T00:36:51;100658.13;;;7.32;100.00
37202;BME280;37799;52.390;6.136;2023-03-26T00:39:20;100656.44;;;7.28;100.00
37202;BME280;37799;52.390;6.136;2023-03-26T00:41:48;100653.22;;;7.17;100.00
37202;BME280;37799;52.390;6.136;2023-03-26T00:44:18;100652.31;;;7.20;100.00
37202;BME280;37799;52.390;6.136;2023-03-26T00:46:43;100648.06;;;7.17;100.00
37202;BME280;37799;52.390;6.136;2023-03-26T00:49:09;100634.34;;;7.17;100.00
37202;BME280;37799;52.390;6.136;2023-03-26T00:51:39;100635.22;;;7.13;100.00
37202;BME280;37799;52.390;6.136;2023-03-26T00:54:05;100635.38;;;7.03;100.00
37202;BME280;37799;52.390;6.136;2023-03-26T00:56:31;100631.88;;;7.07;100.00
37202;BME280;37799;52.390;6.136;2023-03-26T00:58:57;100630.88;;;7.18;100.00
37202;BME280;37799;52.390;6.136;2023-03-26T01:01:25;100627.56;;;7.09;100.00
37202;BME280;37799;52.390;6.136;2023-03-26T01:03:52;100626.75;;;7.07;100.00
37202;BME280;37799;52.390;6.136;2023-03-26T01:06:32;100624.97;;;7.11;100.00
37202;BME280;37799;52.390;6.136;2023-03-26T01:09:12;100629.38;;;7.04;100.00
37202;BME280;37799;52.390;6.136;2023-03-26T01:11:38;100617.28;;;7.08;100.00
37202;BME280;37799;52.390;6.136;2023-03-26T01:14:22;100616.44;;;7.07;100.00
37202;BME280;37799;52.390;6.136;2023-03-26T01:16:53;100613.00;;;7.08;100.00
37202;BME280;37799;52.390;6.136;2023-03-26T01:21:50;100619.06;;;7.04;100.00
37202;BME280;37799;52.390;6.136;2023-03-26T01:24:16;100611.28;;;7.07;100.00
37202;BME280;37799;52.390;6.136;2023-03-26T01:29:44;100608.75;;;7.06;100.00
37202;BME280;37799;52.390;6.136;2023-03-26T01:35:20;100610.41;;;7.08;100.00
37202;BME280;37799;52.390;6.136;2023-03-26T01:40:44;100602.75;;;7.02;100.00
37202;BME280;37799;52.390;6.136;2023-03-26T01:43:24;100593.25;;;7.07;100.00
37202;BME280;37799;52.390;6.136;2023-03-26T01:45:53;100597.63;;;7.02;100.00
37202;BME280;37799;52.390;6.136;2023-03-26T01:48:20;100595.72;;;7.14;100.00
37202;BME280;37799;52.390;6.136;2023-03-26T01:50:45;100601.84;;;7.08;100.00
37202;BME280;37799;52.390;6.136;2023-03-26T01:53:12;100598.47;;;7.03;100.00
37202;BME280;37799;52.390;6.136;2023-03-26T02:01:28;100583.91;;;7.03;100.00
37202;BME280;37799;52.390;6.136;2023-03-26T02:06:37;100577.03;;;7.01;100.00
37202;BME280;37799;52.390;6.136;2023-03-26T02:09:10;100562.47;;;7.00;100.00
37202;BME280;37799;52.390;6.136;2023-03-26T02:11:39;100558.19;;;7.00;100.00
37202;BME280;37799;52.390;6.136;2023-03-26T02:14:06;100553.09;;;6.97;100.00
37202;BME280;37799;52.390;6.136;2023-03-26T02:16:32;100554.00;;;6.95;100.00
37202;BME280;37799;52.390;6.136;2023-03-26T02:18:57;100548.13;;;6.85;100.00
37202;BME280;37799;52.390;6.136;2023-03-26T02:21:24;100547.31;;;6.83;100.00
37202;BME280;37799;52.390;6.136;2023-03-26T02:23:52;100544.78;;;6.80;100.00
37202;BME280;37799;52.390;6.136;2023-03-26T02:26:22;100549.88;;;6.83;100.00
37202;BME280;37799;52.390;6.136;2023-03-26T02:28:49;100543.16;;;6.73;100.00
37202;BME280;37799;52.390;6.136;2023-03-26T02:31:14;100539.06;;;6.60;100.00
37202;BME280;37799;52.390;6.136;2023-03-26T02:33:41;100531.34;;;6.60;100.00
37202;BME280;37799;52.390;6.136;2023-03-26T02:36:09;100531.47;;;6.50;100.00
37202;BME280;37799;52.390;6.136;2023-03-26T02:38:38;100526.44;;;6.44;100.00
37202;BME280;37799;52.390;6.136;2023-03-26T02:41:04;100524.78;;;6.37;100.00
37202;BME280;37799;52.390;6.136;2023-03-26T02:43:29;100520.56;;;6.33;100.00
37202;BME280;37799;52.390;6.136;2023-03-26T02:45:55;100515.66;;;6.18;100.00
37202;BME280;37799;52.390;6.136;2023-03-26T02:48:20;100520.13;;;6.04;100.00
37202;BME280;37799;52.390;6.136;2023-03-26T02:50:46;100522.81;;;5.93;100.00
37202;BME280;37799;52.390;6.136;2023-03-26T02:53:15;100522.06;;;5.80;100.00
37202;BME280;37799;52.390;6.136;2023-03-26T02:55:40;100514.44;;;5.73;100.00
37202;BME280;37799;52.390;6.136;2023-03-26T02:58:05;100508.50;;;5.68;100.00
37202;BME280;37799;52.390;6.136;2023-03-26T03:00:31;100506.78;;;5.68;100.00
37202;BME280;37799;52.390;6.136;2023-03-26T03:02:57;100502.50;;;5.69;100.00
37202;BME280;37799;52.390;6.136;2023-03-26T03:05:23;100494.81;;;5.67;100.00
37202;BME280;37799;52.390;6.136;2023-03-26T03:07:52;100491.41;;;5.67;100.00
37202;BME280;37799;52.390;6.136;2023-03-26T03:10:23;100494.00;;;5.65;100.00
37202;BME280;37799;52.390;6.136;2023-03-26T03:12:48;100489.69;;;5.67;100.00
37202;BME280;37799;52.390;6.136;2023-03-26T03:15:13;100487.91;;;5.74;100.00
37202;BME280;37799;52.390;6.136;2023-03-26T03:17:39;100493.88;;;5.73;100.00
37202;BME280;37799;52.390;6.136;2023-03-26T03:20:06;100492.19;;;5.72;100.00
37202;BME280;37799;52.390;6.136;2023-03-26T03:22:34;100495.63;;;5.74;100.00
37202;BME280;37799;52.390;6.136;2023-03-26T03:24:59;100493.00;;;5.77;100.00
37202;BME280;37799;52.390;6.136;2023-03-26T03:27:25;100481.84;;;5.78;100.00
37202;BME280;37799;52.390;6.136;2023-03-26T03:29:51;100489.53;;;5.79;100.00
37202;BME280;37799;52.390;6.136;2023-03-26T03:32:21;100490.38;;;5.81;100.00
37202;BME280;37799;52.390;6.136;2023-03-26T03:34:47;100486.13;;;5.77;100.00
37202;BME280;37799;52.390;6.136;2023-03-26T03:37:15;100479.31;;;5.76;100.00
37202;BME280;37799;52.390;6.136;2023-03-26T03:39:40;100483.59;;;5.76;100.00
37202;BME280;37799;52.390;6.136;2023-03-26T03:42:06;100477.66;;;5.69;100.00
37202;BME280;37799;52.390;6.136;2023-03-26T03:44:31;100473.41;;;5.68;100.00
37202;BME280;37799;52.390;6.136;2023-03-26T03:46:56;100475.06;;;5.71;100.00
37202;BME280;37799;52.390;6.136;2023-03-26T03:49:22;100470.75;;;5.73;100.00
37202;BME280;37799;52.390;6.136;2023-03-26T03:51:47;100475.00;;;5.77;100.00
37202;BME280;37799;52.390;6.136;2023-03-26T03:54:13;100477.56;;;5.78;100.00
37202;BME280;37799;52.390;6.136;2023-03-26T03:56:38;100466.47;;;5.76;100.00
37202;BME280;37799;52.390;6.136;2023-03-26T03:59:04;100464.59;;;5.87;100.00
37202;BME280;37799;52.390;6.136;2023-03-26T04:01:29;100461.97;;;5.94;100.00
37202;BME280;37799;52.390;6.136;2023-03-26T04:03:56;100457.63;;;6.00;100.00
37202;BME280;37799;52.390;6.136;2023-03-26T04:06:22;100460.06;;;6.09;100.00
37202;BME280;37799;52.390;6.136;2023-03-26T04:08:49;100467.00;;;6.03;100.00
37202;BME280;37799;52.390;6.136;2023-03-26T04:11:15;100459.19;;;6.09;100.00
37202;BME280;37799;52.390;6.136;2023-03-26T04:13:40;100457.44;;;6.11;100.00
37202;BME280;37799;52.390;6.136;2023-03-26T04:16:05;100460.03;;;6.11;100.00
37202;BME280;37799;52.390;6.136;2023-03-26T04:18:31;100454.88;;;6.14;100.00
37202;BME280;37799;52.390;6.136;2023-03-26T04:20:56;100448.00;;;6.14;100.00
37202;BME280;37799;52.390;6.136;2023-03-26T04:23:26;100444.66;;;6.08;100.00
37202;BME280;37799;52.390;6.136;2023-03-26T04:25:53;100446.31;;;6.12;100.00
37202;BME280;37799;52.390;6.136;2023-03-26T04:28:28;100441.19;;;6.10;100.00
37202;BME280;37799;52.390;6.136;2023-03-26T04:30:56;100431.78;;;6.09;100.00
37202;BME280;37799;52.390;6.136;2023-03-26T04:33:29;100438.59;;;6.12;100.00
37202;BME280;37799;52.390;6.136;2023-03-26T04:35:55;100444.34;;;6.29;100.00
37202;BME280;37799;52.390;6.136;2023-03-26T04:38:26;100439.34;;;6.20;100.00
37202;BME280;37799;52.390;6.136;2023-03-26T04:40:51;100432.41;;;6.27;100.00
37202;BME280;37799;52.390;6.136;2023-03-26T04:43:17;100428.81;;;6.35;100.00
37202;BME280;37799;52.390;6.136;2023-03-26T04:45:42;100423.72;;;6.32;100.00
37202;BME280;37799;52.390;6.136;2023-03-26T04:48:10;100424.69;;;6.27;100.00
37202;BME280;37799;52.390;6.136;2023-03-26T04:50:43;100435.78;;;6.30;100.00
37202;BME280;37799;52.390;6.136;2023-03-26T04:53:15;100425.44;;;6.33;100.00
37202;BME280;37799;52.390;6.136;2023-03-26T04:55:54;100428.75;;;6.41;100.00
37202;BME280;37799;52.390;6.136;2023-03-26T04:58:21;100419.38;;;6.39;100.00
37202;BME280;37799;52.390;6.136;2023-03-26T05:00:54;100415.13;;;6.35;100.00
37202;BME280;37799;52.390;6.136;2023-03-26T05:03:19;100419.22;;;6.46;100.00
37202;BME280;37799;52.390;6.136;2023-03-26T05:05:45;100417.63;;;6.41;100.00
37202;BME280;37799;52.390;6.136;2023-03-26T05:08:10;100419.44;;;6.33;100.00
37202;BME280;37799;52.390;6.136;2023-03-26T05:10:35;100414.34;;;6.30;100.00
37202;BME280;37799;52.390;6.136;2023-03-26T05:13:01;100416.88;;;6.33;100.00
37202;BME280;37799;52.390;6.136;2023-03-26T05:15:26;100418.53;;;6.35;100.00
37202;BME280;37799;52.390;6.136;2023-03-26T05:17:51;100419.34;;;6.40;100.00
37202;BME280;37799;52.390;6.136;2023-03-26T05:20:21;100415.91;;;6.40;100.00
37202;BME280;37799;52.390;6.136;2023-03-26T05:22:48;100417.44;;;6.50;100.00
37202;BME280;37799;52.390;6.136;2023-03-26T05:25:15;100407.88;;;6.60;100.00
37202;BME280;37799;52.390;6.136;2023-03-26T05:27:41;100409.41;;;6.70;100.00
37202;BME280;37799;52.390;6.136;2023-03-26T05:30:07;100403.38;;;6.71;100.00
37202;BME280;37799;52.390;6.136;2023-03-26T05:32:32;100400.75;;;6.74;100.00
37202;BME280;37799;52.390;6.136;2023-03-26T05:34:58;100392.16;;;6.75;100.00
37202;BME280;37799;52.390;6.136;2023-03-26T05:37:26;100383.59;;;6.74;100.00
37202;BME280;37799;52.390;6.136;2023-03-26T05:39:55;100377.66;;;6.71;100.00
37202;BME280;37799;52.390;6.136;2023-03-26T05:42:21;100376.91;;;6.66;100.00
37202;BME280;37799;52.390;6.136;2023-03-26T05:44:47;100369.88;;;6.74;100.00
37202;BME280;37799;52.390;6.136;2023-03-26T05:47:12;100373.34;;;6.73;100.00
37202;BME280;37799;52.390;6.136;2023-03-26T05:49:38;100383.66;;;6.71;100.00
37202;BME280;37799;52.390;6.136;2023-03-26T05:52:03;100381.16;;;6.68;100.00
37202;BME280;37799;52.390;6.136;2023-03-26T05:54:29;100383.53;;;6.79;100.00
37202;BME280;37799;52.390;6.136;2023-03-26T05:56:54;100375.84;;;6.77;100.00
37202;BME280;37799;52.390;6.136;2023-03-26T05:59:21;100382.50;;;6.88;100.00
37202;BME280;37799;52.390;6.136;2023-03-26T06:01:46;100377.34;;;6.88;100.00
37202;BME280;37799;52.390;6.136;2023-03-26T06:04:12;100381.63;;;6.90;100.00
37202;BME280;37799;52.390;6.136;2023-03-26T06:06:39;100379.13;;;6.86;100.00
37202;BME280;37799;52.390;6.136;2023-03-26T06:09:05;100374.69;;;6.94;100.00
37202;BME280;37799;52.390;6.136;2023-03-26T06:11:31;100373.66;;;7.02;100.00
37202;BME280;37799;52.390;6.136;2023-03-26T06:13:57;100370.06;;;7.11;100.00
37202;BME280;37799;52.390;6.136;2023-03-26T06:16:22;100364.06;;;7.10;100.00
37202;BME280;37799;52.390;6.136;2023-03-26T06:18:48;100364.00;;;7.14;100.00
37202;BME280;37799;52.390;6.136;2023-03-26T06:21:16;100365.75;;;7.12;100.00
37202;BME280;37799;52.390;6.136;2023-03-26T06:23:41;100357.97;;;7.16;100.00
37202;BME280;37799;52.390;6.136;2023-03-26T06:26:06;100354.50;;;7.17;100.00
37202;BME280;37799;52.390;6.136;2023-03-26T06:28:32;100344.84;;;7.27;100.00
37202;BME280;37799;52.390;6.136;2023-03-26T06:30:59;100343.09;;;7.29;100.00
37202;BME280;37799;52.390;6.136;2023-03-26T06:33:25;100345.56;;;7.35;100.00
37202;BME280;37799;52.390;6.136;2023-03-26T06:35:51;100341.19;;;7.38;100.00
37202;BME280;37799;52.390;6.136;2023-03-26T06:38:16;100342.00;;;7.40;100.00
37202;BME280;37799;52.390;6.136;2023-03-26T06:40:42;100342.66;;;7.50;100.00
37202;BME280;37799;52.390;6.136;2023-03-26T06:43:07;100337.50;;;7.50;100.00
37202;BME280;37799;52.390;6.136;2023-03-26T06:45:33;100339.97;;;7.55;100.00
37202;BME280;37799;52.390;6.136;2023-03-26T06:47:58;100333.94;;;7.57;100.00
37202;BME280;37799;52.390;6.136;2023-03-26T06:50:24;100341.59;;;7.60;100.00
37202;BME280;37799;52.390;6.136;2023-03-26T06:52:53;100326.94;;;7.62;100.00
37202;BME280;37799;52.390;6.136;2023-03-26T06:55:18;100328.50;;;7.69;100.00
37202;BME280;37799;52.390;6.136;2023-03-26T06:57:47;100330.81;;;7.82;100.00
37202;BME280;37799;52.390;6.136;2023-03-26T07:00:13;100324.63;;;7.89;100.00
37202;BME280;37799;52.390;6.136;2023-03-26T07:02:38;100327.19;;;7.89;100.00
37202;BME280;37799;52.390;6.136;2023-03-26T07:05:04;100325.94;;;8.05;100.00
37202;BME280;37799;52.390;6.136;2023-03-26T07:07:29;100325.34;;;7.94;100.00
37202;BME280;37799;52.390;6.136;2023-03-26T07:09:55;100325.34;;;7.95;100.00
37202;BME280;37799;52.390;6.136;2023-03-26T07:12:20;100326.88;;;8.03;100.00
37202;BME280;37799;52.390;6.136;2023-03-26T07:14:45;100323.50;;;8.01;100.00
37202;BME280;37799;52.390;6.136;2023-03-26T07:17:11;100319.91;;;8.06;100.00
37202;BME280;37799;52.390;6.136;2023-03-26T07:19:36;100319.84;;;8.09;100.00
37202;BME280;37799;52.390;6.136;2023-03-26T07:22:01;100324.25;;;8.04;100.00
37202;BME280;37799;52.390;6.136;2023-03-26T07:24:28;100323.38;;;8.05;100.00
37202;BME280;37799;52.390;6.136;2023-03-26T07:27:22;100322.19;;;8.18;100.00
37202;BME280;37799;52.390;6.136;2023-03-26T07:30:03;100323.97;;;8.16;100.00
37202;BME280;37799;52.390;6.136;2023-03-26T07:32:45;100324.72;;;8.21;100.00
37202;BME280;37799;52.390;6.136;2023-03-26T07:38:34;100320.09;;;8.36;100.00
37202;BME280;37799;52.390;6.136;2023-03-26T07:41:08;100326.78;;;8.43;100.00
37202;BME280;37799;52.390;6.136;2023-03-26T07:46:48;100317.25;;;8.46;100.00
37202;BME280;37799;52.390;6.136;2023-03-26T07:49:17;100322.41;;;8.45;100.00
37202;BME280;37799;52.390;6.136;2023-03-26T07:51:44;100319.63;;;8.54;100.00
37202;BME280;37799;52.390;6.136;2023-03-26T07:54:10;100316.06;;;8.58;100.00
37202;BME280;37799;52.390;6.136;2023-03-26T07:59:14;100320.38;;;8.57;100.00
37202;BME280;37799;52.390;6.136;2023-03-26T08:04:35;100321.31;;;8.55;100.00
37202;BME280;37799;52.390;6.136;2023-03-26T08:07:16;100320.31;;;8.61;100.00
37202;BME280;37799;52.390;6.136;2023-03-26T08:12:57;100314.41;;;8.88;100.00
37202;BME280;37799;52.390;6.136;2023-03-26T08:15:34;100315.97;;;8.94;100.00
37202;BME280;37799;52.390;6.136;2023-03-26T08:21:08;100312.25;;;9.04;100.00
37202;BME280;37799;52.390;6.136;2023-03-26T08:26:44;100314.78;;;9.35;100.00
37202;BME280;37799;52.390;6.136;2023-03-26T08:29:43;100313.91;;;9.36;100.00
37202;BME280;37799;52.390;6.136;2023-03-26T08:32:14;100303.44;;;9.40;100.00
37202;BME280;37799;52.390;6.136;2023-03-26T08:34:40;100313.09;;;9.34;100.00
37202;BME280;37799;52.390;6.136;2023-03-26T08:37:06;100312.44;;;9.27;100.00
37202;BME280;37799;52.390;6.136;2023-03-26T08:39:31;100308.09;;;9.29;100.00
37202;BME280;37799;52.390;6.136;2023-03-26T09:19:02;100306.63;;;9.49;100.00
37202;BME280;37799;52.390;6.136;2023-03-26T09:27:27;100310.53;;;9.62;100.00
37202;BME280;37799;52.390;6.136;2023-03-26T09:33:08;100313.69;;;9.43;100.00
37202;BME280;37799;52.390;6.136;2023-03-26T09:35:52;100316.25;;;9.73;100.00
37202;BME280;37799;52.390;6.136;2023-03-26T09:38:57;100326.19;;;9.57;100.00
37202;BME280;37799;52.390;6.136;2023-03-26T09:41:49;100322.44;;;9.39;100.00
37202;BME280;37799;52.390;6.136;2023-03-26T09:47:25;100319.31;;;9.28;100.00
37202;BME280;37799;52.390;6.136;2023-03-26T09:55:35;100315.84;;;8.98;100.00
37202;BME280;37799;52.390;6.136;2023-03-26T10:00:59;100319.34;;;8.96;100.00
37202;BME280;37799;52.390;6.136;2023-03-26T10:06:13;100327.00;;;9.00;100.00
37202;BME280;37799;52.390;6.136;2023-03-26T10:11:52;100327.75;;;8.71;100.00
37202;BME280;37799;52.390;6.136;2023-03-26T10:14:31;100339.66;;;8.77;100.00
37202;BME280;37799;52.390;6.136;2023-03-26T10:19:59;100333.66;;;8.76;100.00
37202;BME280;37799;52.390;6.136;2023-03-26T10:25:34;100332.22;;;8.99;100.00
37202;BME280;37799;52.390;6.136;2023-03-26T10:34:17;100338.59;;;9.46;100.00
37202;BME280;37799;52.390;6.136;2023-03-26T10:40:08;100341.50;;;9.65;100.00
37202;BME280;37799;52.390;6.136;2023-03-26T10:42:48;100340.31;;;9.75;100.00
37202;BME280;37799;52.390;6.136;2023-03-26T10:45:30;100350.28;;;9.87;100.00
37202;BME280;37799;52.390;6.136;2023-03-26T10:48:53;100349.41;;;9.59;100.00
37202;BME280;37799;52.390;6.136;2023-03-26T10:54:21;100359.28;;;9.74;100.00
37202;BME280;37799;52.390;6.136;2023-03-26T10:56:51;100349.59;;;9.53;100.00
37202;BME280;37799;52.390;6.136;2023-03-26T10:59:18;100353.22;;;9.75;100.00
37202;BME280;37799;52.390;6.136;2023-03-26T11:10:15;100367.00;;;9.75;100.00
37202;BME280;37799;52.390;6.136;2023-03-26T11:12:51;100359.91;;;9.82;100.00
37202;BME280;37799;52.390;6.136;2023-03-26T11:15:26;100358.91;;;10.14;100.00
37202;BME280;37799;52.390;6.136;2023-03-26T11:18:18;100366.50;;;9.92;100.00
37202;BME280;37799;52.390;6.136;2023-03-26T11:20:50;100365.13;;;10.09;100.00
37202;BME280;37799;52.390;6.136;2023-03-26T11:23:29;100369.25;;;10.16;100.00
37202;BME280;37799;52.390;6.136;2023-03-26T11:26:07;100370.47;;;10.04;100.00
37202;BME280;37799;52.390;6.136;2023-03-26T11:29:08;100366.88;;;10.08;100.00
37202;BME280;37799;52.390;6.136;2023-03-26T11:32:10;100368.22;;;10.48;100.00
37202;BME280;37799;52.390;6.136;2023-03-26T11:34:40;100375.25;;;10.16;100.00
37202;BME280;37799;52.390;6.136;2023-03-26T11:37:17;100371.25;;;10.34;100.00
37202;BME280;37799;52.390;6.136;2023-03-26T11:39:49;100379.75;;;10.38;100.00
37202;BME280;37799;52.390;6.136;2023-03-26T11:42:17;100380.09;;;10.27;100.00
37202;BME280;37799;52.390;6.136;2023-03-26T11:47:17;100385.78;;;10.64;100.00
37202;BME280;37799;52.390;6.136;2023-03-26T11:49:45;100375.84;;;10.77;100.00
37202;BME280;37799;52.390;6.136;2023-03-26T11:52:11;100374.81;;;11.08;100.00
37202;BME280;37799;52.390;6.136;2023-03-26T11:54:39;100377.19;;;11.37;100.00
37202;BME280;37799;52.390;6.136;2023-03-26T11:57:09;100385.25;;;11.53;100.00
37202;BME280;37799;52.390;6.136;2023-03-26T11:59:40;100383.88;;;11.66;100.00
37202;BME280;37799;52.390;6.136;2023-03-26T12:07:20;100379.72;;;12.07;100.00
37202;BME280;37799;52.390;6.136;2023-03-26T12:09:54;100399.00;;;11.78;100.00
37202;BME280;37799;52.390;6.136;2023-03-26T12:12:21;100400.38;;;11.89;100.00
37202;BME280;37799;52.390;6.136;2023-03-26T12:14:49;100391.63;;;11.91;100.00
37202;BME280;37799;52.390;6.136;2023-03-26T12:17:26;100401.94;;;11.93;100.00
37202;BME280;37799;52.390;6.136;2023-03-26T12:19:53;100407.38;;;11.87;100.00
37202;BME280;37799;52.390;6.136;2023-03-26T12:22:27;100399.44;;;11.43;100.00
37202;BME280;37799;52.390;6.136;2023-03-26T12:25:01;100397.47;;;11.26;100.00
37202;BME280;37799;52.390;6.136;2023-03-26T12:27:27;100393.91;;;11.29;100.00
37202;BME280;37799;52.390;6.136;2023-03-26T12:30:09;100399.31;;;11.22;100.00
37202;BME280;37799;52.390;6.136;2023-03-26T12:32:40;100398.66;;;11.41;100.00
37202;BME280;37799;52.390;6.136;2023-03-26T12:35:09;100401.59;;;11.55;100.00
37202;BME280;37799;52.390;6.136;2023-03-26T12:37:43;100413.25;;;11.67;100.00
37202;BME280;37799;52.390;6.136;2023-03-26T12:42:55;100414.47;;;11.81;100.00
37202;BME280;37799;52.390;6.136;2023-03-26T12:45:27;100413.47;;;11.86;100.00
37202;BME280;37799;52.390;6.136;2023-03-26T12:47:55;100412.19;;;11.72;100.00
37202;BME280;37799;52.390;6.136;2023-03-26T12:50:27;100415.69;;;11.95;100.00
37202;BME280;37799;52.390;6.136;2023-03-26T12:53:01;100429.22;;;12.03;100.00
37202;BME280;37799;52.390;6.136;2023-03-26T12:55:38;100431.09;;;11.99;100.00
37202;BME280;37799;52.390;6.136;2023-03-26T13:01:11;100434.47;;;11.78;100.00
37202;BME280;37799;52.390;6.136;2023-03-26T13:14:06;100434.44;;;11.55;100.00
37202;BME280;37799;52.390;6.136;2023-03-26T13:19:07;100451.78;;;11.04;100.00
37202;BME280;37799;52.390;6.136;2023-03-26T13:30:36;100443.72;;;10.87;100.00
37202;BME280;37799;52.390;6.136;2023-03-26T13:36:17;100452.84;;;10.99;100.00
37202;BME280;37799;52.390;6.136;2023-03-26T13:38:57;100455.69;;;10.91;100.00
37202;BME280;37799;52.390;6.136;2023-03-26T13:41:57;100445.16;;;10.71;100.00
37202;BME280;37799;52.390;6.136;2023-03-26T13:44:47;100451.00;;;10.49;100.00
37202;BME280;37799;52.390;6.136;2023-03-26T13:47:19;100452.63;;;10.52;100.00
37202;BME280;37799;52.390;6.136;2023-03-26T13:50:02;100459.44;;;10.56;100.00
37202;BME280;37799;52.390;6.136;2023-03-26T13:55:18;100462.88;;;10.56;100.00
37202;BME280;37799;52.390;6.136;2023-03-26T13:58:12;100463.31;;;10.43;100.00
37202;BME280;37799;52.390;6.136;2023-03-26T14:03:52;100473.00;;;10.62;100.00
37202;BME280;37799;52.390;6.136;2023-03-26T14:06:30;100474.97;;;10.56;100.00
37202;BME280;37799;52.390;6.136;2023-03-26T14:09:14;100472.44;;;10.53;100.00
37202;BME280;37799;52.390;6.136;2023-03-26T14:14:30;100482.69;;;10.57;100.00
37202;BME280;37799;52.390;6.136;2023-03-26T14:17:05;100489.19;;;10.43;100.00
37202;BME280;37799;52.390;6.136;2023-03-26T14:22:47;100497.72;;;10.17;100.00
37202;BME280;37799;52.390;6.136;2023-03-26T14:25:38;100499.13;;;9.97;100.00
37202;BME280;37799;52.390;6.136;2023-03-26T14:34:12;100515.88;;;9.84;100.00
37202;BME280;37799;52.390;6.136;2023-03-26T14:37:02;100512.06;;;9.66;100.00
37202;BME280;37799;52.390;6.136;2023-03-26T14:48:17;100522.41;;;9.34;100.00
37202;BME280;37799;52.390;6.136;2023-03-26T14:51:22;100527.13;;;9.18;100.00
37202;BME280;37799;52.390;6.136;2023-03-26T14:53:53;100526.22;;;9.19;100.00
37202;BME280;37799;52.390;6.136;2023-03-26T15:16:25;100565.25;;;8.71;100.00
37202;BME280;37799;52.390;6.136;2023-03-26T15:33:29;100578.13;;;8.73;100.00
37202;BME280;37799;52.390;6.136;2023-03-26T15:39:12;100586.84;;;8.67;100.00
37202;BME280;37799;52.390;6.136;2023-03-26T15:41:57;100587.13;;;8.55;100.00
37202;BME280;37799;52.390;6.136;2023-03-26T15:44:41;100590.72;;;8.48;100.00
37202;BME280;37799;52.390;6.136;2023-03-26T15:47:24;100600.72;;;8.63;100.00
37202;BME280;37799;52.390;6.136;2023-03-26T15:52:45;100610.31;;;8.56;100.00
37202;BME280;37799;52.390;6.136;2023-03-26T15:55:24;100610.25;;;8.58;100.00
37202;BME280;37799;52.390;6.136;2023-03-26T15:58:04;100616.06;;;8.69;100.00
37202;BME280;37799;52.390;6.136;2023-03-26T16:00:34;100619.75;;;8.96;100.00
37202;BME280;37799;52.390;6.136;2023-03-26T16:03:16;100635.09;;;8.65;100.00
37202;BME280;37799;52.390;6.136;2023-03-26T16:16:58;100656.09;;;8.48;100.00
37202;BME280;37799;52.390;6.136;2023-03-26T16:19:45;100670.44;;;8.15;100.00
37202;BME280;37799;52.390;6.136;2023-03-26T16:25:20;100676.38;;;8.20;100.00
37202;BME280;37799;52.390;6.136;2023-03-26T16:30:36;100689.59;;;8.02;100.00
37202;BME280;37799;52.390;6.136;2023-03-26T16:33:12;100691.69;;;7.80;100.00
37202;BME280;37799;52.390;6.136;2023-03-26T16:36:05;100694.34;;;7.76;100.00
37202;BME280;37799;52.390;6.136;2023-03-26T16:52:45;100732.97;;;7.22;100.00
37202;BME280;37799;52.390;6.136;2023-03-26T16:55:18;100733.13;;;7.09;100.00
37202;BME280;37799;52.390;6.136;2023-03-26T16:57:53;100732.16;;;7.18;100.00
37202;BME280;37799;52.390;6.136;2023-03-26T17:08:13;100753.72;;;7.09;100.00
37202;BME280;37799;52.390;6.136;2023-03-26T17:10:55;100763.44;;;6.86;100.00
37202;BME280;37799;52.390;6.136;2023-03-26T17:13:34;100772.13;;;6.76;100.00
37202;BME280;37799;52.390;6.136;2023-03-26T17:16:18;100772.09;;;6.82;100.00
37202;BME280;37799;52.390;6.136;2023-03-26T17:19:04;100776.31;;;6.86;100.00
37202;BME280;37799;52.390;6.136;2023-03-26T17:21:39;100775.44;;;6.87;100.00
37202;BME280;37799;52.390;6.136;2023-03-26T17:32:15;100812.53;;;6.71;100.00
37202;BME280;37799;52.390;6.136;2023-03-26T17:34:53;100802.22;;;6.71;100.00
37202;BME280;37799;52.390;6.136;2023-03-26T17:42:29;100826.41;;;6.55;100.00
37202;BME280;37799;52.390;6.136;2023-03-26T17:47:30;100834.16;;;6.52;100.00
37202;BME280;37799;52.390;6.136;2023-03-26T17:50:04;100839.41;;;6.38;100.00
37202;BME280;37799;52.390;6.136;2023-03-26T17:52:43;100841.97;;;6.38;100.00
37202;BME280;37799;52.390;6.136;2023-03-26T17:55:17;100848.91;;;6.33;100.00
37202;BME280;37799;52.390;6.136;2023-03-26T17:57:46;100860.06;;;6.32;100.00